Airfield :
LOGIN :

Register | Disclaimer

   EN    FR    IT 

 










Legend :    VFR   Marginal VFR   IFR   Intensive IFR   Very Intensive IFR
Visi :
Ceiling :
>= 8 km
>= 3000ft
5 to 8 km
1000 to 3000 ft
1500m to 5 km
500 to 1000 ft
800 to 1500m
200 to 500 ft
< 800m
< 200 ft
Symbols :   Thunderstorms  Fog  Heavy snow  Heavy precipitations  Wind > 20 kt
SIGMETs :     Misc.  Thunderstorms  Icing  Turbulence  Mountain Waves  Volcanic Ashes







- Airport Elevation : 357 ft
- IATA code : TUF
- Download approach charts


LFOT - Tours

CURRENT METAR :
  • 240000Z AUTO 19011KT 9999 ///TCU 13/10 Q1010 BECMG BKN040

EXPIRED METARs :
  • 232330Z AUTO 18010KT 9999 ///TCU 13/10 Q1010 BECMG BKN040
  • 232300Z AUTO 18009KT CAVOK 13/11 Q1010 TEMPO BKN012TCU BKN020
  • 232230Z AUTO 18010KT CAVOK 14/11 Q1010 TEMPO BKN012TCU BKN020
  • 232200Z AUTO 18010KT 9999 FEW032 SCT072 BKN110 13/11 Q1011 TEMPO BKN012TCU BKN020
  • 232130Z AUTO 20010KT 9999 FEW035 BKN100 OVC130 14/12 Q1011 TEMPO BKN012TCU BKN020

TAF TAF LFOT
Valid from the 24 at 00:00 until the 25 at 00:00 UTC


232300Z 2400/2424 18012G22KT 9999 BKN040
BECMG 2404/2406 BKN020
TEMPO 2406/2415 -RA BKN011
BECMG 2413/2415 25008KT
PROB30
TEMPO 2415/2424 -RA
No reported NOTAMs for that airfield.



MET'MAP, your aeronautical weather chart ! - Copyright ORBIFLY December 2007 - Disclaimer

ORBIFLY MET'MAP TEAM :

Programming & Development : Alexandra Zaïnal
Concept & Development : Baudouin d'Aumeries
Co-Development & Prog : Marc-Olivier Méhu
Technical & hardware support : Manuel Goepfert

Contact : metmap@orbifly.com




SOURCES & CREDITS :

   NOAA